createdAt,value
2022-10-14T00:02:13.898Z,22.92
2022-10-14T00:04:40.941Z,22.60
2022-10-14T00:07:07.947Z,21.42
2022-10-14T00:09:34.996Z,21.92
2022-10-14T00:12:01.832Z,21.30
2022-10-14T00:14:28.648Z,21.33
2022-10-14T00:16:56.452Z,22.15
2022-10-14T00:22:14.617Z,20.48
2022-10-14T00:24:41.493Z,21.70
2022-10-14T00:27:09.192Z,21.73
2022-10-14T00:29:36.213Z,21.80
2022-10-14T00:32:03.075Z,22.90
2022-10-14T00:34:30.719Z,22.40
2022-10-14T00:37:00.027Z,21.70
2022-10-14T00:39:27.211Z,21.98
2022-10-14T00:41:54.086Z,22.67
2022-10-14T00:44:20.986Z,21.23
2022-10-14T00:47:13.350Z,21.17
2022-10-14T00:49:43.648Z,21.40
2022-10-14T00:52:19.106Z,20.92
2022-10-14T00:54:55.376Z,22.15
2022-10-14T00:57:25.224Z,21.52
2022-10-14T01:00:01.931Z,22.02
2022-10-14T01:04:56.609Z,19.90
2022-10-14T01:08:02.834Z,22.60
2022-10-14T01:10:49.529Z,19.92
2022-10-14T01:13:32.971Z,20.63
2022-10-14T01:16:16.871Z,21.73
2022-10-14T01:19:41.824Z,22.67
2022-10-14T01:22:31.205Z,21.30
2022-10-14T01:25:12.972Z,20.40
2022-10-14T01:28:01.351Z,22.25
2022-10-14T01:30:44.847Z,19.95
2022-10-14T01:33:51.340Z,20.02
2022-10-14T01:36:38.964Z,20.02
2022-10-14T01:39:12.664Z,19.23
2022-10-14T01:41:49.032Z,20.52
2022-10-14T01:46:52.241Z,18.55
2022-10-14T01:49:32.604Z,19.27
2022-10-14T01:52:09.887Z,19.00
2022-10-14T01:54:43.111Z,20.35
2022-10-14T01:57:22.414Z,19.67
2022-10-14T01:59:52.243Z,19.90
2022-10-14T02:02:20.096Z,19.35
2022-10-14T02:04:47.252Z,19.60
2022-10-14T02:07:27.836Z,20.77
2022-10-14T02:10:24.527Z,18.80
2022-10-14T02:13:16.949Z,19.10
2022-10-14T02:16:38.578Z,18.52
2022-10-14T02:19:28.290Z,17.15
2022-10-14T02:22:39.926Z,17.55
2022-10-14T02:25:36.318Z,17.85
2022-10-14T02:28:07.869Z,17.85
2022-10-14T02:30:42.481Z,18.48
2022-10-14T02:33:10.175Z,18.00
2022-10-14T02:35:38.671Z,18.80
2022-10-14T02:38:07.748Z,18.90
2022-10-14T02:40:43.691Z,18.35
2022-10-14T02:43:12.307Z,19.48
2022-10-14T02:45:42.274Z,18.58
2022-10-14T02:48:10.565Z,18.38
2022-10-14T02:50:38.346Z,18.73
2022-10-14T02:53:05.210Z,18.38
2022-10-14T02:55:32.143Z,18.58
2022-10-14T02:58:00.093Z,18.35
2022-10-14T03:00:27.220Z,18.67
2022-10-14T03:02:56.253Z,18.05
2022-10-14T03:05:24.941Z,18.40
2022-10-14T03:07:53.810Z,20.73
2022-10-14T03:10:22.393Z,18.98
2022-10-14T03:12:49.649Z,19.98
2022-10-14T03:15:25.606Z,19.40
2022-10-14T03:17:53.280Z,17.40
2022-10-14T03:20:24.729Z,18.95
2022-10-14T03:22:56.390Z,19.52
2022-10-14T03:25:24.093Z,18.60
2022-10-14T03:28:02.363Z,17.63
2022-10-14T03:30:58.415Z,18.02
2022-10-14T03:33:40.660Z,17.65
2022-10-14T03:36:12.130Z,16.67
2022-10-14T03:38:49.790Z,15.98
2022-10-14T03:41:39.931Z,17.73
2022-10-14T03:44:08.192Z,16.25
2022-10-14T03:46:37.843Z,15.60
2022-10-14T03:49:05.531Z,17.00
2022-10-14T03:51:33.051Z,15.90
2022-10-14T03:54:13.586Z,16.55
2022-10-14T03:56:40.428Z,16.05
2022-10-14T03:59:08.302Z,16.38
2022-10-14T04:01:36.728Z,15.60
2022-10-14T04:04:15.914Z,16.33
2022-10-14T04:06:42.773Z,15.57
2022-10-14T04:09:10.183Z,16.48
2022-10-14T04:11:40.131Z,19.58
2022-10-14T04:14:10.649Z,18.92
2022-10-14T04:16:49.696Z,17.73
2022-10-14T04:19:18.018Z,17.27
2022-10-14T04:21:45.527Z,16.83
2022-10-14T04:24:13.043Z,17.20
2022-10-14T04:26:52.526Z,18.50
2022-10-14T04:29:44.254Z,16.52
2022-10-14T04:32:17.526Z,16.67
2022-10-14T04:34:44.997Z,16.73
2022-10-14T04:37:15.325Z,17.98
2022-10-14T04:39:55.485Z,16.35
2022-10-14T04:42:23.306Z,16.67
2022-10-14T04:44:54.700Z,17.63
2022-10-14T04:47:30.918Z,17.58
2022-10-14T04:50:02.426Z,17.58
2022-10-14T04:52:31.793Z,16.98
2022-10-14T04:55:08.572Z,17.20
2022-10-14T04:57:43.280Z,16.52
2022-10-14T05:00:12.665Z,17.52
2022-10-14T05:02:52.565Z,17.65
2022-10-14T05:05:22.103Z,18.27
2022-10-14T05:07:53.619Z,17.85
2022-10-14T05:10:29.004Z,17.58
2022-10-14T05:12:56.767Z,17.02
2022-10-14T05:15:27.361Z,16.35
2022-10-14T05:18:04.920Z,16.10
2022-10-14T05:20:47.026Z,16.75
2022-10-14T05:23:14.282Z,16.75
2022-10-14T05:25:43.090Z,16.42
2022-10-14T05:28:10.543Z,17.58
2022-10-14T05:30:39.270Z,17.35
2022-10-14T05:33:09.150Z,17.40
2022-10-14T05:35:57.606Z,16.88
2022-10-14T05:38:34.176Z,16.90
2022-10-14T05:41:02.080Z,18.08
2022-10-14T05:43:32.403Z,18.98
2022-10-14T05:46:03.354Z,17.55
2022-10-14T05:48:35.289Z,17.95
2022-10-14T05:51:03.392Z,18.63
2022-10-14T05:53:32.721Z,17.67
2022-10-14T05:56:09.093Z,18.15
2022-10-14T05:58:38.795Z,18.05
2022-10-14T06:01:10.772Z,18.10
2022-10-14T06:03:41.148Z,17.42
2022-10-14T06:06:14.182Z,18.85
2022-10-14T06:08:42.061Z,16.88
2022-10-14T06:11:09.658Z,17.15
2022-10-14T06:13:36.579Z,17.02
2022-10-14T06:16:06.453Z,18.10
2022-10-14T06:18:34.853Z,17.65
2022-10-14T06:21:27.232Z,16.33
2022-10-14T06:23:54.539Z,17.38
2022-10-14T06:26:21.564Z,17.15
2022-10-14T06:28:48.612Z,16.80
2022-10-14T06:31:15.621Z,16.65
2022-10-14T06:33:44.017Z,17.90
2022-10-14T06:36:12.097Z,17.30
2022-10-14T06:38:39.286Z,16.50
2022-10-14T06:41:06.861Z,17.58
2022-10-14T06:43:35.315Z,17.63
2022-10-14T06:46:28.051Z,18.85
2022-10-14T06:48:55.129Z,17.65
2022-10-14T06:51:22.203Z,18.23
2022-10-14T06:53:49.117Z,17.58
2022-10-14T06:56:16.074Z,15.73
2022-10-14T06:58:43.092Z,16.35
2022-10-14T07:01:10.104Z,17.33
2022-10-14T07:03:39.148Z,18.23
2022-10-14T07:06:07.781Z,17.08
2022-10-14T07:08:35.010Z,17.33
2022-10-14T07:11:02.632Z,16.20
2022-10-14T07:13:29.860Z,15.95
2022-10-14T07:15:56.725Z,17.13
2022-10-14T07:18:23.914Z,18.23
2022-10-14T07:20:50.821Z,16.55
2022-10-14T07:23:17.705Z,16.48
2022-10-14T07:25:44.746Z,17.38
2022-10-14T07:28:11.981Z,16.33
2022-10-14T07:30:39.147Z,16.38
2022-10-14T07:33:05.970Z,17.02
2022-10-14T07:35:33.114Z,16.73
2022-10-14T07:38:00.209Z,16.50
2022-10-14T07:40:28.037Z,16.63
2022-10-14T07:42:54.956Z,15.63
2022-10-14T07:45:21.932Z,15.15
2022-10-14T07:47:51.440Z,15.70
2022-10-14T07:50:20.106Z,15.30
2022-10-14T07:52:47.148Z,15.88
2022-10-14T07:55:14.076Z,15.57
2022-10-14T07:57:41.033Z,14.82
2022-10-14T08:00:09.368Z,15.13
2022-10-14T08:02:38.985Z,14.93
2022-10-14T08:05:36.669Z,14.20
2022-10-14T08:07:53.634Z,14.13
2022-10-14T08:10:24.102Z,14.30
2022-10-14T08:12:51.856Z,14.93
2022-10-14T08:15:19.101Z,13.68
2022-10-14T08:17:46.352Z,14.57
2022-10-14T08:20:13.348Z,14.52
2022-10-14T08:22:40.343Z,15.50
2022-10-14T08:25:07.799Z,14.63
2022-10-14T08:27:36.565Z,13.10
2022-10-14T08:30:10.209Z,14.13
2022-10-14T08:32:38.894Z,13.65
2022-10-14T08:35:06.565Z,14.38
2022-10-14T08:37:33.357Z,14.10
2022-10-14T08:40:00.618Z,13.85
2022-10-14T08:42:37.201Z,13.15
2022-10-14T08:47:56.961Z,11.30
2022-10-14T08:50:39.569Z,12.63
2022-10-14T08:53:14.117Z,12.00
2022-10-14T08:55:54.703Z,12.38
2022-10-14T08:58:35.103Z,12.02
2022-10-14T09:01:32.801Z,11.57
2022-10-14T09:04:06.623Z,11.63
2022-10-14T09:06:41.631Z,12.23
2022-10-14T09:09:54.362Z,11.45
2022-10-14T09:12:28.831Z,11.18
2022-10-14T09:15:16.681Z,10.32
2022-10-14T09:17:55.760Z,11.13
2022-10-14T09:20:25.449Z,10.55
2022-10-14T09:23:10.422Z,12.30
2022-10-14T09:25:40.275Z,10.52
2022-10-14T09:28:09.106Z,9.65
2022-10-14T09:30:38.959Z,11.77
2022-10-14T09:33:06.728Z,11.30
2022-10-14T09:35:42.306Z,10.93
2022-10-14T09:38:12.144Z,11.18
2022-10-14T09:40:49.939Z,10.55
2022-10-14T09:44:25.713Z,10.70
2022-10-14T09:46:58.368Z,11.13
2022-10-14T09:49:42.632Z,11.15
2022-10-14T09:52:24.710Z,10.13
2022-10-14T09:54:57.403Z,10.98
2022-10-14T09:57:29.932Z,9.68
2022-10-14T10:00:06.394Z,10.43
2022-10-14T10:02:44.980Z,10.43
2022-10-14T10:05:25.916Z,10.32
2022-10-14T10:08:07.684Z,9.95
2022-10-14T10:10:35.583Z,9.07
2022-10-14T10:13:03.910Z,10.10
2022-10-14T10:15:30.814Z,10.27
2022-10-14T10:17:57.753Z,8.77
2022-10-14T10:20:31.809Z,10.65
2022-10-14T10:23:25.646Z,12.00
2022-10-14T10:25:53.193Z,9.38
2022-10-14T10:28:31.483Z,9.57
2022-10-14T10:31:47.444Z,9.48
2022-10-14T10:34:54.664Z,10.00
2022-10-14T10:37:28.587Z,9.25
2022-10-14T10:40:12.671Z,9.48
2022-10-14T10:42:58.746Z,9.32
2022-10-14T10:45:41.650Z,10.23
2022-10-14T10:48:31.164Z,9.90
2022-10-14T10:51:09.912Z,10.20
2022-10-14T10:54:02.780Z,8.57
2022-10-14T10:56:42.872Z,10.13
2022-10-14T11:00:07.830Z,10.85
2022-10-14T11:03:49.197Z,9.07
2022-10-14T11:10:42.108Z,9.50
2022-10-14T11:13:41.938Z,10.13
2022-10-14T11:16:55.530Z,10.18
2022-10-14T11:19:33.601Z,10.75
2022-10-14T11:22:43.879Z,8.90
2022-10-14T11:25:25.502Z,9.82
2022-10-14T11:28:10.307Z,9.70
2022-10-14T11:31:06.773Z,9.73
2022-10-14T11:33:46.085Z,8.38
2022-10-14T11:36:35.389Z,9.88
2022-10-14T11:39:39.372Z,9.60
2022-10-14T11:42:35.127Z,8.88
2022-10-14T11:45:21.165Z,9.55
2022-10-14T11:48:10.827Z,9.13
2022-10-14T11:50:42.401Z,8.70
2022-10-14T11:53:39.667Z,9.13
2022-10-14T11:56:46.458Z,9.43
2022-10-14T11:59:40.030Z,9.18
2022-10-14T12:02:39.886Z,8.50
2022-10-14T12:05:41.302Z,8.30
2022-10-14T12:08:25.841Z,8.10
2022-10-14T12:11:13.610Z,8.20
2022-10-14T12:13:52.286Z,9.10
2022-10-14T12:16:22.504Z,8.18
2022-10-14T12:18:55.306Z,7.22
2022-10-14T12:21:52.677Z,7.63
2022-10-14T12:24:26.556Z,6.88
2022-10-14T12:26:57.820Z,6.90
2022-10-14T12:29:41.454Z,6.75
2022-10-14T12:32:28.093Z,6.35
2022-10-14T12:35:02.891Z,6.13
2022-10-14T12:37:35.179Z,7.20
2022-10-14T12:40:02.736Z,6.57
2022-10-14T12:42:39.079Z,5.70
2022-10-14T12:45:22.888Z,6.70
2022-10-14T12:48:27.468Z,5.80
2022-10-14T12:51:13.175Z,6.75
2022-10-14T12:53:51.682Z,6.57
2022-10-14T12:56:54.997Z,5.78
2022-10-14T12:59:36.424Z,4.97
2022-10-14T13:02:28.274Z,4.72
2022-10-14T13:04:55.827Z,4.80
2022-10-14T13:07:39.701Z,4.97
2022-10-14T13:10:27.368Z,4.72
2022-10-14T13:15:51.742Z,4.00
2022-10-14T13:20:58.246Z,4.68
2022-10-14T13:23:50.446Z,4.70
2022-10-14T13:26:43.681Z,5.20
2022-10-14T13:29:17.679Z,4.90
2022-10-14T13:32:21.321Z,5.07
2022-10-14T13:35:26.623Z,4.75
2022-10-14T13:38:00.340Z,5.10
2022-10-14T13:40:35.222Z,5.07
2022-10-14T13:43:12.719Z,4.47
2022-10-14T13:45:45.352Z,4.30
2022-10-14T13:48:22.552Z,4.47
2022-10-14T13:50:54.162Z,4.70
2022-10-14T13:53:25.703Z,4.18
2022-10-14T13:55:54.730Z,4.60
2022-10-14T13:58:24.154Z,4.78
2022-10-14T14:01:00.270Z,3.85
2022-10-14T14:03:53.541Z,4.10
2022-10-14T14:06:23.172Z,4.15
2022-10-14T14:09:03.373Z,4.50
2022-10-14T14:11:34.696Z,4.68
2022-10-14T14:14:42.525Z,3.88
2022-10-14T14:17:31.066Z,4.25
2022-10-14T14:19:58.473Z,4.40
2022-10-14T14:22:30.775Z,4.40
2022-10-14T14:25:34.841Z,4.03
2022-10-14T14:28:15.290Z,3.88
2022-10-14T14:30:54.883Z,4.25
2022-10-14T14:33:48.792Z,4.63
2022-10-14T14:36:27.912Z,3.65
2022-10-14T14:39:06.276Z,3.97
2022-10-14T14:41:33.483Z,4.40
2022-10-14T14:46:59.154Z,4.07
2022-10-14T14:49:35.075Z,4.07
2022-10-14T14:52:04.131Z,4.10
2022-10-14T14:54:31.559Z,4.18
2022-10-14T14:57:07.447Z,3.92
2022-10-14T14:59:39.031Z,4.05
2022-10-14T15:02:16.088Z,4.55
2022-10-14T15:04:48.016Z,4.43
2022-10-14T15:07:21.501Z,4.35
2022-10-14T15:09:58.731Z,3.80
2022-10-14T15:12:39.257Z,3.53
2022-10-14T15:15:22.077Z,3.83
2022-10-14T15:18:24.292Z,3.70
2022-10-14T15:20:52.215Z,3.75
2022-10-14T15:23:50.199Z,3.83
2022-10-14T15:26:35.303Z,4.22
2022-10-14T15:29:08.054Z,3.63
2022-10-14T15:31:37.024Z,4.00
2022-10-14T15:34:05.608Z,4.18
2022-10-14T15:36:34.410Z,4.82
2022-10-14T15:39:02.397Z,4.13
2022-10-14T15:41:30.071Z,3.63
2022-10-14T15:43:57.123Z,3.90
2022-10-14T15:46:42.990Z,4.25
2022-10-14T15:49:26.065Z,3.90
2022-10-14T15:51:53.186Z,3.95
2022-10-14T15:54:27.489Z,4.00
2022-10-14T15:59:28.342Z,5.13
2022-10-14T16:01:55.253Z,5.25
2022-10-14T16:04:27.509Z,5.75
2022-10-14T16:06:56.645Z,5.45
2022-10-14T16:09:27.684Z,5.05
2022-10-14T16:11:58.003Z,5.28
2022-10-14T16:14:27.232Z,5.53
2022-10-14T16:16:54.677Z,5.70
2022-10-14T16:19:21.805Z,7.10
2022-10-14T16:21:50.127Z,6.78
2022-10-14T16:24:20.319Z,6.75
2022-10-14T16:26:51.337Z,7.32
2022-10-14T16:29:20.332Z,7.43
2022-10-14T16:31:51.168Z,6.72
2022-10-14T16:34:21.414Z,8.32
2022-10-14T16:36:50.063Z,7.25
2022-10-14T16:39:19.162Z,7.45
2022-10-14T16:41:46.677Z,7.43
2022-10-14T16:44:24.658Z,8.90
2022-10-14T16:47:16.053Z,15.10
2022-10-14T16:49:49.250Z,9.15
2022-10-14T16:52:18.085Z,8.45
2022-10-14T16:54:45.037Z,7.18
2022-10-14T16:57:12.791Z,6.57
2022-10-14T16:59:40.236Z,6.75
2022-10-14T17:02:16.012Z,6.22
2022-10-14T17:04:46.196Z,7.18
2022-10-14T17:07:15.094Z,7.43
2022-10-14T17:09:42.014Z,8.90
2022-10-14T17:12:14.178Z,7.50
2022-10-14T17:14:41.628Z,7.78
2022-10-14T17:17:10.305Z,8.65
2022-10-14T17:19:38.528Z,7.22
2022-10-14T17:22:05.379Z,7.68
2022-10-14T17:24:32.618Z,7.53
2022-10-14T17:27:03.739Z,10.23
2022-10-14T17:29:31.782Z,10.43
2022-10-14T17:31:58.910Z,11.88
2022-10-14T17:34:28.462Z,11.93
2022-10-14T17:36:59.733Z,10.52
2022-10-14T17:39:29.534Z,8.55
2022-10-14T17:41:57.520Z,9.05
2022-10-14T17:44:24.801Z,7.97
2022-10-14T17:46:51.793Z,7.72
2022-10-14T17:49:18.682Z,8.05
2022-10-14T17:51:45.566Z,7.38
2022-10-14T17:54:12.957Z,7.55
2022-10-14T17:56:41.035Z,7.45
2022-10-14T17:59:12.079Z,7.50
2022-10-14T18:04:26.134Z,8.43
2022-10-14T18:06:54.046Z,8.65
2022-10-14T18:12:12.198Z,9.10
2022-10-14T18:14:40.319Z,8.65
2022-10-14T18:17:07.562Z,8.57
2022-10-14T18:19:35.027Z,12.80
2022-10-14T18:22:04.429Z,8.88
2022-10-14T18:24:32.279Z,7.97
2022-10-14T18:26:59.244Z,8.50
2022-10-14T18:29:26.209Z,7.93
2022-10-14T18:31:53.069Z,8.30
2022-10-14T18:34:22.012Z,8.15
2022-10-14T18:36:49.060Z,7.68
2022-10-14T18:39:16.029Z,7.20
2022-10-14T18:41:43.961Z,8.02
2022-10-14T18:44:11.036Z,7.28
2022-10-14T18:46:39.515Z,7.88
2022-10-14T18:49:09.921Z,7.07
2022-10-14T18:51:39.738Z,6.55
2022-10-14T18:54:16.187Z,7.15
2022-10-14T18:56:44.393Z,6.43
2022-10-14T18:59:17.701Z,7.70
2022-10-14T19:01:45.961Z,7.07
2022-10-14T19:04:15.531Z,7.80
2022-10-14T19:06:45.913Z,8.48
2022-10-14T19:09:13.981Z,8.45
2022-10-14T19:11:41.993Z,8.40
2022-10-14T19:14:09.946Z,7.55
2022-10-14T19:16:38.986Z,7.47
2022-10-14T19:19:16.493Z,7.72
2022-10-14T19:21:46.397Z,6.75
2022-10-14T19:24:13.919Z,7.60
2022-10-14T19:26:44.908Z,7.80
2022-10-14T19:29:15.187Z,7.78
2022-10-14T19:31:43.982Z,8.80
2022-10-14T19:34:15.325Z,8.10
2022-10-14T19:36:43.262Z,7.55
2022-10-14T19:39:15.447Z,8.20
2022-10-14T19:41:47.255Z,9.05
2022-10-14T19:44:39.336Z,8.07
2022-10-14T19:47:06.345Z,8.45
2022-10-14T19:49:33.248Z,8.60
2022-10-14T19:52:00.190Z,8.82
2022-10-14T19:54:27.061Z,8.93
2022-10-14T19:56:54.091Z,7.88
2022-10-14T19:59:21.205Z,8.65
2022-10-14T20:01:48.431Z,9.63
2022-10-14T20:04:15.475Z,10.02
2022-10-14T20:06:44.073Z,8.50
2022-10-14T20:09:14.484Z,8.32
2022-10-14T20:11:42.152Z,8.25
2022-10-14T20:14:09.182Z,7.85
2022-10-14T20:16:36.230Z,9.05
2022-10-14T20:19:03.883Z,7.95
2022-10-14T20:21:31.776Z,8.75
2022-10-14T20:23:59.620Z,8.60
2022-10-14T20:28:58.646Z,8.55
2022-10-14T20:31:25.718Z,8.05
2022-10-14T20:33:52.735Z,7.63
2022-10-14T20:36:21.681Z,8.52
2022-10-14T20:38:49.865Z,8.10
2022-10-14T20:44:15.282Z,8.23
2022-10-14T20:46:42.835Z,8.25
2022-10-14T20:49:09.801Z,8.13
2022-10-14T20:51:36.688Z,10.50
2022-10-14T20:54:06.037Z,9.35
2022-10-14T20:56:36.679Z,9.13
2022-10-14T20:59:07.865Z,9.48
2022-10-14T21:01:36.770Z,9.75
2022-10-14T21:04:07.259Z,10.20
2022-10-14T21:06:35.328Z,10.40
2022-10-14T21:09:02.374Z,10.32
2022-10-14T21:11:29.449Z,10.10
2022-10-14T21:13:59.555Z,10.30
2022-10-14T21:16:36.020Z,10.68
2022-10-14T21:19:07.248Z,10.75
2022-10-14T21:21:39.295Z,10.85
2022-10-14T21:24:08.629Z,11.98
2022-10-14T21:26:35.637Z,11.20
2022-10-14T21:29:03.710Z,11.18
2022-10-14T21:31:31.801Z,10.77
2022-10-14T21:34:05.392Z,11.68
2022-10-14T21:36:34.789Z,11.98
2022-10-14T21:39:09.988Z,12.00
2022-10-14T21:41:38.241Z,10.95
2022-10-14T21:44:06.420Z,11.48
2022-10-14T21:46:34.088Z,11.32
2022-10-14T21:49:01.192Z,10.98
2022-10-14T21:51:30.633Z,12.85
2022-10-14T21:53:57.852Z,12.77
2022-10-14T21:56:25.986Z,11.85
2022-10-14T21:58:53.699Z,12.80
2022-10-14T22:01:24.039Z,13.45
2022-10-14T22:03:57.242Z,12.65
2022-10-14T22:06:25.064Z,14.77
2022-10-14T22:08:56.040Z,13.23
2022-10-14T22:11:32.674Z,13.43
2022-10-14T22:14:03.439Z,12.50
2022-10-14T22:16:30.793Z,13.90
2022-10-14T22:19:00.578Z,13.15
2022-10-14T22:21:30.812Z,13.55
2022-10-14T22:23:58.862Z,13.52
2022-10-14T22:26:28.394Z,12.68
2022-10-14T22:29:08.177Z,13.27
2022-10-14T22:31:35.272Z,13.82
2022-10-14T22:34:05.724Z,14.30
2022-10-14T22:36:35.451Z,13.38
2022-10-14T22:39:09.693Z,13.02
2022-10-14T22:41:36.879Z,14.13
2022-10-14T22:44:05.585Z,13.65
2022-10-14T22:46:35.903Z,13.95
2022-10-14T22:49:03.502Z,13.13
2022-10-14T22:51:34.832Z,14.52
2022-10-14T22:54:02.577Z,14.85
2022-10-14T22:56:30.782Z,13.88
2022-10-14T22:59:06.090Z,13.38
2022-10-14T23:01:33.213Z,14.63
2022-10-14T23:04:00.982Z,13.70
2022-10-14T23:06:29.447Z,14.13
2022-10-14T23:08:57.401Z,13.88
2022-10-14T23:11:25.637Z,13.93
2022-10-14T23:13:53.586Z,14.43
2022-10-14T23:16:26.888Z,13.27
2022-10-14T23:18:54.939Z,14.23
2022-10-14T23:21:28.657Z,14.82
2022-10-14T23:23:59.326Z,14.48
2022-10-14T23:26:31.570Z,13.68
2022-10-14T23:29:00.181Z,14.70
2022-10-14T23:31:33.301Z,13.55
2022-10-14T23:34:03.451Z,13.98
2022-10-14T23:36:30.685Z,14.25
2022-10-14T23:38:58.762Z,14.30
2022-10-14T23:41:26.217Z,13.85
2022-10-14T23:43:54.077Z,14.57
2022-10-14T23:46:21.074Z,14.82
2022-10-14T23:48:55.841Z,13.60
2022-10-14T23:54:02.962Z,13.35
2022-10-14T23:56:29.815Z,14.23
2022-10-14T23:58:56.799Z,13.35
